sensor_id;sensor_type;location;lat;lon;timestamp;P1;durP1;ratioP1;P2;durP2;ratioP2
10565;SDS011;5331;48.148;16.326;2023-05-06T00:01:19;6.72;;;6.07;;
10565;SDS011;5331;48.148;16.326;2023-05-06T00:03:46;7.28;;;6.57;;
10565;SDS011;5331;48.148;16.326;2023-05-06T00:06:14;6.78;;;6.18;;
10565;SDS011;5331;48.148;16.326;2023-05-06T00:08:41;7.00;;;6.40;;
10565;SDS011;5331;48.148;16.326;2023-05-06T00:11:08;7.90;;;7.10;;
10565;SDS011;5331;48.148;16.326;2023-05-06T00:13:34;7.95;;;7.10;;
10565;SDS011;5331;48.148;16.326;2023-05-06T00:16:02;7.78;;;7.03;;
10565;SDS011;5331;48.148;16.326;2023-05-06T00:18:29;9.35;;;7.93;;
10565;SDS011;5331;48.148;16.326;2023-05-06T00:20:56;8.90;;;7.10;;
10565;SDS011;5331;48.148;16.326;2023-05-06T00:23:24;8.02;;;6.95;;
10565;SDS011;5331;48.148;16.326;2023-05-06T00:25:52;10.15;;;7.63;;
10565;SDS011;5331;48.148;16.326;2023-05-06T00:28:19;7.35;;;6.60;;
10565;SDS011;5331;48.148;16.326;2023-05-06T00:30:46;8.02;;;7.22;;
10565;SDS011;5331;48.148;16.326;2023-05-06T00:33:13;9.25;;;6.88;;
10565;SDS011;5331;48.148;16.326;2023-05-06T00:35:39;8.50;;;7.50;;
10565;SDS011;5331;48.148;16.326;2023-05-06T00:38:07;8.95;;;8.05;;
10565;SDS011;5331;48.148;16.326;2023-05-06T00:40:36;14.73;;;11.07;;
10565;SDS011;5331;48.148;16.326;2023-05-06T00:43:03;9.65;;;8.70;;
10565;SDS011;5331;48.148;16.326;2023-05-06T00:45:30;8.80;;;8.00;;
10565;SDS011;5331;48.148;16.326;2023-05-06T00:47:58;10.75;;;8.48;;
10565;SDS011;5331;48.148;16.326;2023-05-06T00:50:25;8.75;;;7.88;;
10565;SDS011;5331;48.148;16.326;2023-05-06T00:52:53;9.90;;;7.90;;
10565;SDS011;5331;48.148;16.326;2023-05-06T00:55:23;8.15;;;7.38;;
10565;SDS011;5331;48.148;16.326;2023-05-06T00:57:51;7.95;;;7.00;;
10565;SDS011;5331;48.148;16.326;2023-05-06T01:00:19;7.15;;;6.55;;
10565;SDS011;5331;48.148;16.326;2023-05-06T01:02:46;9.02;;;6.85;;
10565;SDS011;5331;48.148;16.326;2023-05-06T01:05:14;7.78;;;7.07;;
10565;SDS011;5331;48.148;16.326;2023-05-06T01:07:45;8.07;;;7.25;;
10565;SDS011;5331;48.148;16.326;2023-05-06T01:10:20;7.88;;;7.00;;
10565;SDS011;5331;48.148;16.326;2023-05-06T01:12:56;8.73;;;7.88;;
10565;SDS011;5331;48.148;16.326;2023-05-06T01:15:30;9.88;;;7.60;;
10565;SDS011;5331;48.148;16.326;2023-05-06T01:18:00;8.18;;;7.38;;
10565;SDS011;5331;48.148;16.326;2023-05-06T01:20:29;8.32;;;7.55;;
10565;SDS011;5331;48.148;16.326;2023-05-06T01:22:58;7.40;;;6.65;;
10565;SDS011;5331;48.148;16.326;2023-05-06T01:25:28;7.32;;;6.70;;
10565;SDS011;5331;48.148;16.326;2023-05-06T01:27:56;11.82;;;7.65;;
10565;SDS011;5331;48.148;16.326;2023-05-06T01:30:23;6.32;;;5.82;;
10565;SDS011;5331;48.148;16.326;2023-05-06T01:32:57;7.30;;;6.57;;
10565;SDS011;5331;48.148;16.326;2023-05-06T01:35:45;10.85;;;7.40;;
10565;SDS011;5331;48.148;16.326;2023-05-06T01:38:21;8.13;;;7.15;;
10565;SDS011;5331;48.148;16.326;2023-05-06T01:40:56;7.35;;;6.70;;
10565;SDS011;5331;48.148;16.326;2023-05-06T01:43:25;7.32;;;6.63;;
10565;SDS011;5331;48.148;16.326;2023-05-06T01:45:54;7.18;;;6.57;;
10565;SDS011;5331;48.148;16.326;2023-05-06T01:48:22;8.10;;;6.57;;
10565;SDS011;5331;48.148;16.326;2023-05-06T01:50:51;7.28;;;6.57;;
10565;SDS011;5331;48.148;16.326;2023-05-06T01:53:18;6.40;;;5.90;;
10565;SDS011;5331;48.148;16.326;2023-05-06T01:55:45;7.18;;;6.07;;
10565;SDS011;5331;48.148;16.326;2023-05-06T01:58:14;6.60;;;6.00;;
10565;SDS011;5331;48.148;16.326;2023-05-06T02:00:40;5.80;;;5.30;;
10565;SDS011;5331;48.148;16.326;2023-05-06T02:03:07;7.75;;;5.78;;
10565;SDS011;5331;48.148;16.326;2023-05-06T02:05:34;5.20;;;4.72;;
10565;SDS011;5331;48.148;16.326;2023-05-06T02:08:01;5.05;;;4.55;;
10565;SDS011;5331;48.148;16.326;2023-05-06T02:10:28;5.65;;;5.18;;
10565;SDS011;5331;48.148;16.326;2023-05-06T02:12:55;4.82;;;4.43;;
10565;SDS011;5331;48.148;16.326;2023-05-06T02:15:24;4.22;;;3.83;;
10565;SDS011;5331;48.148;16.326;2023-05-06T02:17:51;4.40;;;3.90;;
10565;SDS011;5331;48.148;16.326;2023-05-06T02:20:17;4.00;;;3.70;;
10565;SDS011;5331;48.148;16.326;2023-05-06T02:22:44;3.92;;;3.63;;
10565;SDS011;5331;48.148;16.326;2023-05-06T02:25:11;4.05;;;3.00;;
10565;SDS011;5331;48.148;16.326;2023-05-06T02:27:38;2.50;;;2.30;;
10565;SDS011;5331;48.148;16.326;2023-05-06T02:30:05;2.60;;;2.50;;
10565;SDS011;5331;48.148;16.326;2023-05-06T02:32:34;2.50;;;2.40;;
10565;SDS011;5331;48.148;16.326;2023-05-06T02:35:01;2.63;;;2.42;;
10565;SDS011;5331;48.148;16.326;2023-05-06T02:37:28;1.90;;;1.80;;
10565;SDS011;5331;48.148;16.326;2023-05-06T02:39:55;1.92;;;1.83;;
10565;SDS011;5331;48.148;16.326;2023-05-06T02:42:21;1.77;;;1.67;;
10565;SDS011;5331;48.148;16.326;2023-05-06T02:44:48;2.00;;;1.90;;
10565;SDS011;5331;48.148;16.326;2023-05-06T02:47:15;2.47;;;2.28;;
10565;SDS011;5331;48.148;16.326;2023-05-06T02:49:43;2.33;;;2.13;;
10565;SDS011;5331;48.148;16.326;2023-05-06T02:52:10;3.25;;;2.10;;
10565;SDS011;5331;48.148;16.326;2023-05-06T02:54:37;2.42;;;2.22;;
10565;SDS011;5331;48.148;16.326;2023-05-06T02:57:04;2.30;;;2.10;;
10565;SDS011;5331;48.148;16.326;2023-05-06T02:59:31;1.80;;;1.70;;
10565;SDS011;5331;48.148;16.326;2023-05-06T03:01:58;1.45;;;1.35;;
10565;SDS011;5331;48.148;16.326;2023-05-06T03:04:24;1.60;;;1.50;;
10565;SDS011;5331;48.148;16.326;2023-05-06T03:06:53;1.42;;;1.40;;
10565;SDS011;5331;48.148;16.326;2023-05-06T03:09:19;1.17;;;1.17;;
10565;SDS011;5331;48.148;16.326;2023-05-06T03:11:46;1.20;;;1.20;;
10565;SDS011;5331;48.148;16.326;2023-05-06T03:14:14;1.10;;;1.10;;
10565;SDS011;5331;48.148;16.326;2023-05-06T03:16:41;1.08;;;1.08;;
10565;SDS011;5331;48.148;16.326;2023-05-06T03:19:08;1.15;;;1.15;;
10565;SDS011;5331;48.148;16.326;2023-05-06T03:21:34;1.17;;;1.17;;
10565;SDS011;5331;48.148;16.326;2023-05-06T03:24:03;1.20;;;1.20;;
10565;SDS011;5331;48.148;16.326;2023-05-06T03:26:30;1.10;;;1.10;;
10565;SDS011;5331;48.148;16.326;2023-05-06T03:28:57;1.08;;;1.08;;
10565;SDS011;5331;48.148;16.326;2023-05-06T03:31:24;1.15;;;1.15;;
10565;SDS011;5331;48.148;16.326;2023-05-06T03:33:51;1.00;;;1.00;;
10565;SDS011;5331;48.148;16.326;2023-05-06T03:36:18;1.00;;;1.00;;
10565;SDS011;5331;48.148;16.326;2023-05-06T03:38:48;1.20;;;1.20;;
10565;SDS011;5331;48.148;16.326;2023-05-06T03:41:16;1.42;;;1.00;;
10565;SDS011;5331;48.148;16.326;2023-05-06T03:43:43;1.10;;;1.10;;
10565;SDS011;5331;48.148;16.326;2023-05-06T03:46:10;1.20;;;1.20;;
10565;SDS011;5331;48.148;16.326;2023-05-06T03:48:36;1.20;;;1.20;;
10565;SDS011;5331;48.148;16.326;2023-05-06T03:51:03;1.02;;;1.02;;
10565;SDS011;5331;48.148;16.326;2023-05-06T03:53:30;1.30;;;1.20;;
10565;SDS011;5331;48.148;16.326;2023-05-06T03:55:57;1.08;;;1.08;;
10565;SDS011;5331;48.148;16.326;2023-05-06T03:58:27;1.65;;;1.20;;
10565;SDS011;5331;48.148;16.326;2023-05-06T04:00:53;1.05;;;1.05;;
10565;SDS011;5331;48.148;16.326;2023-05-06T04:03:20;1.25;;;1.13;;
10565;SDS011;5331;48.148;16.326;2023-05-06T04:05:47;0.95;;;0.95;;
10565;SDS011;5331;48.148;16.326;2023-05-06T04:08:15;1.00;;;1.00;;
10565;SDS011;5331;48.148;16.326;2023-05-06T04:10:42;1.13;;;1.13;;
10565;SDS011;5331;48.148;16.326;2023-05-06T04:13:09;1.08;;;1.08;;
10565;SDS011;5331;48.148;16.326;2023-05-06T04:15:37;1.20;;;1.20;;
10565;SDS011;5331;48.148;16.326;2023-05-06T04:18:05;1.13;;;1.13;;
10565;SDS011;5331;48.148;16.326;2023-05-06T04:20:32;1.10;;;1.10;;
10565;SDS011;5331;48.148;16.326;2023-05-06T04:23:00;1.25;;;1.20;;
10565;SDS011;5331;48.148;16.326;2023-05-06T04:25:27;1.50;;;1.25;;
10565;SDS011;5331;48.148;16.326;2023-05-06T04:27:53;1.13;;;1.13;;
10565;SDS011;5331;48.148;16.326;2023-05-06T04:30:20;1.20;;;1.20;;
10565;SDS011;5331;48.148;16.326;2023-05-06T04:32:49;1.20;;;1.20;;
10565;SDS011;5331;48.148;16.326;2023-05-06T04:35:16;1.85;;;1.48;;
10565;SDS011;5331;48.148;16.326;2023-05-06T04:37:43;1.38;;;1.38;;
10565;SDS011;5331;48.148;16.326;2023-05-06T04:40:10;1.83;;;1.73;;
10565;SDS011;5331;48.148;16.326;2023-05-06T04:42:38;1.92;;;1.83;;
10565;SDS011;5331;48.148;16.326;2023-05-06T04:45:06;1.38;;;1.38;;
10565;SDS011;5331;48.148;16.326;2023-05-06T04:47:34;1.40;;;1.30;;
10565;SDS011;5331;48.148;16.326;2023-05-06T04:50:02;1.70;;;1.45;;
10565;SDS011;5331;48.148;16.326;2023-05-06T04:52:29;1.40;;;1.30;;
10565;SDS011;5331;48.148;16.326;2023-05-06T04:54:56;1.42;;;1.33;;
10565;SDS011;5331;48.148;16.326;2023-05-06T04:57:23;3.53;;;1.80;;
10565;SDS011;5331;48.148;16.326;2023-05-06T04:59:50;1.48;;;1.38;;
10565;SDS011;5331;48.148;16.326;2023-05-06T05:02:16;1.40;;;1.27;;
10565;SDS011;5331;48.148;16.326;2023-05-06T05:04:43;1.35;;;1.35;;
10565;SDS011;5331;48.148;16.326;2023-05-06T05:07:12;2.13;;;1.90;;
10565;SDS011;5331;48.148;16.326;2023-05-06T05:09:38;3.30;;;3.10;;
10565;SDS011;5331;48.148;16.326;2023-05-06T05:12:05;4.80;;;4.30;;
10565;SDS011;5331;48.148;16.326;2023-05-06T05:14:32;6.43;;;4.10;;
10565;SDS011;5331;48.148;16.326;2023-05-06T05:16:59;4.47;;;3.97;;
10565;SDS011;5331;48.148;16.326;2023-05-06T05:19:26;4.40;;;3.88;;
10565;SDS011;5331;48.148;16.326;2023-05-06T05:21:53;4.00;;;3.67;;
10565;SDS011;5331;48.148;16.326;2023-05-06T05:24:21;4.28;;;3.97;;
10565;SDS011;5331;48.148;16.326;2023-05-06T05:26:48;4.03;;;3.72;;
10565;SDS011;5331;48.148;16.326;2023-05-06T05:29:15;4.75;;;4.35;;
10565;SDS011;5331;48.148;16.326;2023-05-06T05:31:42;4.53;;;4.13;;
10565;SDS011;5331;48.148;16.326;2023-05-06T05:34:09;5.32;;;4.82;;
10565;SDS011;5331;48.148;16.326;2023-05-06T05:36:38;6.47;;;5.78;;
10565;SDS011;5331;48.148;16.326;2023-05-06T05:39:05;8.90;;;5.90;;
10565;SDS011;5331;48.148;16.326;2023-05-06T05:41:33;6.20;;;5.38;;
10565;SDS011;5331;48.148;16.326;2023-05-06T05:44:00;5.05;;;4.60;;
10565;SDS011;5331;48.148;16.326;2023-05-06T05:46:27;5.07;;;4.50;;
10565;SDS011;5331;48.148;16.326;2023-05-06T05:48:54;4.40;;;4.03;;
10565;SDS011;5331;48.148;16.326;2023-05-06T05:51:21;4.75;;;4.20;;
10565;SDS011;5331;48.148;16.326;2023-05-06T05:53:48;3.13;;;2.92;;
10565;SDS011;5331;48.148;16.326;2023-05-06T05:56:16;3.30;;;2.97;;
10565;SDS011;5331;48.148;16.326;2023-05-06T05:58:44;2.50;;;2.40;;
10565;SDS011;5331;48.148;16.326;2023-05-06T06:01:11;2.60;;;2.42;;
10565;SDS011;5331;48.148;16.326;2023-05-06T06:03:38;2.20;;;2.10;;
10565;SDS011;5331;48.148;16.326;2023-05-06T06:06:05;2.08;;;1.98;;
10565;SDS011;5331;48.148;16.326;2023-05-06T06:08:33;2.55;;;2.35;;
10565;SDS011;5331;48.148;16.326;2023-05-06T06:11:00;1.90;;;1.80;;
10565;SDS011;5331;48.148;16.326;2023-05-06T06:13:28;2.78;;;2.13;;
10565;SDS011;5331;48.148;16.326;2023-05-06T06:15:56;2.75;;;2.25;;
10565;SDS011;5331;48.148;16.326;2023-05-06T06:18:23;2.08;;;1.98;;
10565;SDS011;5331;48.148;16.326;2023-05-06T06:20:50;2.00;;;1.90;;
10565;SDS011;5331;48.148;16.326;2023-05-06T06:23:17;2.40;;;2.20;;
10565;SDS011;5331;48.148;16.326;2023-05-06T06:25:44;2.00;;;1.90;;
10565;SDS011;5331;48.148;16.326;2023-05-06T06:28:11;2.15;;;1.95;;
10565;SDS011;5331;48.148;16.326;2023-05-06T06:30:38;1.92;;;1.83;;
10565;SDS011;5331;48.148;16.326;2023-05-06T06:33:06;2.70;;;2.50;;
10565;SDS011;5331;48.148;16.326;2023-05-06T06:35:33;3.35;;;3.05;;
10565;SDS011;5331;48.148;16.326;2023-05-06T06:38:00;5.50;;;4.97;;
10565;SDS011;5331;48.148;16.326;2023-05-06T06:40:27;6.13;;;5.38;;
10565;SDS011;5331;48.148;16.326;2023-05-06T06:42:55;5.03;;;4.63;;
10565;SDS011;5331;48.148;16.326;2023-05-06T06:45:22;4.93;;;4.53;;
10565;SDS011;5331;48.148;16.326;2023-05-06T06:47:49;23.92;;;18.92;;
10565;SDS011;5331;48.148;16.326;2023-05-06T06:50:17;15.50;;;11.45;;
10565;SDS011;5331;48.148;16.326;2023-05-06T06:52:44;37.47;;;25.02;;
10565;SDS011;5331;48.148;16.326;2023-05-06T06:55:11;11.55;;;10.13;;
10565;SDS011;5331;48.148;16.326;2023-05-06T06:57:39;30.13;;;23.67;;
10565;SDS011;5331;48.148;16.326;2023-05-06T07:00:06;6.00;;;5.50;;
10565;SDS011;5331;48.148;16.326;2023-05-06T07:02:34;5.38;;;4.95;;
10565;SDS011;5331;48.148;16.326;2023-05-06T07:05:01;7.57;;;6.82;;
10565;SDS011;5331;48.148;16.326;2023-05-06T07:07:29;10.45;;;8.20;;
10565;SDS011;5331;48.148;16.326;2023-05-06T07:09:56;6.30;;;5.60;;
10565;SDS011;5331;48.148;16.326;2023-05-06T07:12:23;7.50;;;6.80;;
10565;SDS011;5331;48.148;16.326;2023-05-06T07:14:51;5.55;;;4.32;;
10565;SDS011;5331;48.148;16.326;2023-05-06T07:17:18;3.55;;;3.10;;
10565;SDS011;5331;48.148;16.326;2023-05-06T07:19:45;3.38;;;3.08;;
10565;SDS011;5331;48.148;16.326;2023-05-06T07:22:11;3.13;;;2.92;;
10565;SDS011;5331;48.148;16.326;2023-05-06T07:24:40;2.40;;;2.30;;
10565;SDS011;5331;48.148;16.326;2023-05-06T07:27:06;2.10;;;2.00;;
10565;SDS011;5331;48.148;16.326;2023-05-06T07:29:33;2.38;;;2.28;;
10565;SDS011;5331;48.148;16.326;2023-05-06T07:32:01;3.40;;;3.10;;
10565;SDS011;5331;48.148;16.326;2023-05-06T07:34:28;2.10;;;2.00;;
10565;SDS011;5331;48.148;16.326;2023-05-06T07:36:55;2.30;;;2.20;;
10565;SDS011;5331;48.148;16.326;2023-05-06T07:39:22;2.03;;;1.92;;
10565;SDS011;5331;48.148;16.326;2023-05-06T07:41:50;2.38;;;2.17;;
10565;SDS011;5331;48.148;16.326;2023-05-06T07:44:17;2.67;;;2.20;;
10565;SDS011;5331;48.148;16.326;2023-05-06T07:46:45;1.90;;;1.80;;
10565;SDS011;5331;48.148;16.326;2023-05-06T07:49:12;2.10;;;1.90;;
10565;SDS011;5331;48.148;16.326;2023-05-06T07:51:40;2.50;;;2.30;;
10565;SDS011;5331;48.148;16.326;2023-05-06T07:54:07;3.00;;;2.80;;
10565;SDS011;5331;48.148;16.326;2023-05-06T07:56:35;2.90;;;2.70;;
10565;SDS011;5331;48.148;16.326;2023-05-06T07:59:03;2.90;;;2.70;;
10565;SDS011;5331;48.148;16.326;2023-05-06T08:01:30;1.88;;;1.77;;
10565;SDS011;5331;48.148;16.326;2023-05-06T08:03:57;1.90;;;1.80;;
10565;SDS011;5331;48.148;16.326;2023-05-06T08:06:24;1.90;;;1.80;;
10565;SDS011;5331;48.148;16.326;2023-05-06T08:08:52;3.13;;;1.80;;
10565;SDS011;5331;48.148;16.326;2023-05-06T08:11:19;2.17;;;1.98;;
10565;SDS011;5331;48.148;16.326;2023-05-06T08:13:46;1.90;;;1.80;;
10565;SDS011;5331;48.148;16.326;2023-05-06T08:16:14;2.13;;;1.77;;
10565;SDS011;5331;48.148;16.326;2023-05-06T08:18:41;2.00;;;1.80;;
10565;SDS011;5331;48.148;16.326;2023-05-06T08:21:08;1.65;;;1.55;;
10565;SDS011;5331;48.148;16.326;2023-05-06T08:23:35;1.90;;;1.80;;
10565;SDS011;5331;48.148;16.326;2023-05-06T08:26:03;1.90;;;1.80;;
10565;SDS011;5331;48.148;16.326;2023-05-06T08:28:30;2.20;;;2.00;;
10565;SDS011;5331;48.148;16.326;2023-05-06T08:30:57;2.60;;;1.65;;
10565;SDS011;5331;48.148;16.326;2023-05-06T08:33:25;1.83;;;1.70;;
10565;SDS011;5331;48.148;16.326;2023-05-06T08:35:54;1.75;;;1.65;;
10565;SDS011;5331;48.148;16.326;2023-05-06T08:38:22;2.13;;;1.60;;
10565;SDS011;5331;48.148;16.326;2023-05-06T08:40:49;1.80;;;1.55;;
10565;SDS011;5331;48.148;16.326;2023-05-06T08:43:18;1.92;;;1.80;;
10565;SDS011;5331;48.148;16.326;2023-05-06T08:45:46;1.80;;;1.70;;
10565;SDS011;5331;48.148;16.326;2023-05-06T08:48:14;1.50;;;1.50;;
10565;SDS011;5331;48.148;16.326;2023-05-06T08:50:43;1.85;;;1.70;;
10565;SDS011;5331;48.148;16.326;2023-05-06T08:53:10;1.88;;;1.70;;
10565;SDS011;5331;48.148;16.326;2023-05-06T08:55:39;1.65;;;1.50;;
10565;SDS011;5331;48.148;16.326;2023-05-06T08:58:07;1.80;;;1.70;;
10565;SDS011;5331;48.148;16.326;2023-05-06T09:00:35;1.70;;;1.60;;
10565;SDS011;5331;48.148;16.326;2023-05-06T09:03:02;1.77;;;1.67;;
10565;SDS011;5331;48.148;16.326;2023-05-06T09:05:29;1.92;;;1.80;;
10565;SDS011;5331;48.148;16.326;2023-05-06T09:07:58;2.33;;;1.50;;
10565;SDS011;5331;48.148;16.326;2023-05-06T09:10:29;1.85;;;1.70;;
10565;SDS011;5331;48.148;16.326;2023-05-06T09:12:57;1.70;;;1.60;;
10565;SDS011;5331;48.148;16.326;2023-05-06T09:15:24;1.70;;;1.60;;
10565;SDS011;5331;48.148;16.326;2023-05-06T09:17:51;1.80;;;1.60;;
10565;SDS011;5331;48.148;16.326;2023-05-06T09:20:20;1.58;;;1.48;;
10565;SDS011;5331;48.148;16.326;2023-05-06T09:22:46;1.60;;;1.50;;
10565;SDS011;5331;48.148;16.326;2023-05-06T09:25:15;1.95;;;1.70;;
10565;SDS011;5331;48.148;16.326;2023-05-06T09:27:42;1.88;;;1.70;;
10565;SDS011;5331;48.148;16.326;2023-05-06T09:30:09;1.70;;;1.60;;
10565;SDS011;5331;48.148;16.326;2023-05-06T09:32:37;1.90;;;1.80;;
10565;SDS011;5331;48.148;16.326;2023-05-06T09:35:06;1.67;;;1.60;;
10565;SDS011;5331;48.148;16.326;2023-05-06T09:37:34;1.70;;;1.60;;
10565;SDS011;5331;48.148;16.326;2023-05-06T09:40:01;1.80;;;1.70;;
10565;SDS011;5331;48.148;16.326;2023-05-06T09:42:29;1.83;;;1.73;;
10565;SDS011;5331;48.148;16.326;2023-05-06T09:44:57;1.92;;;1.80;;
10565;SDS011;5331;48.148;16.326;2023-05-06T09:47:24;1.75;;;1.73;;
10565;SDS011;5331;48.148;16.326;2023-05-06T09:49:55;1.80;;;1.70;;
10565;SDS011;5331;48.148;16.326;2023-05-06T09:52:23;1.70;;;1.70;;
10565;SDS011;5331;48.148;16.326;2023-05-06T09:54:51;1.80;;;1.70;;
10565;SDS011;5331;48.148;16.326;2023-05-06T09:57:19;2.15;;;1.70;;
10565;SDS011;5331;48.148;16.326;2023-05-06T09:59:48;1.80;;;1.70;;
10565;SDS011;5331;48.148;16.326;2023-05-06T10:02:16;1.88;;;1.77;;
10565;SDS011;5331;48.148;16.326;2023-05-06T10:04:44;2.10;;;1.88;;
10565;SDS011;5331;48.148;16.326;2023-05-06T10:07:13;2.80;;;1.85;;
10565;SDS011;5331;48.148;16.326;2023-05-06T10:09:46;1.90;;;1.80;;
10565;SDS011;5331;48.148;16.326;2023-05-06T10:12:15;1.80;;;1.70;;
10565;SDS011;5331;48.148;16.326;2023-05-06T10:14:42;2.10;;;1.90;;
10565;SDS011;5331;48.148;16.326;2023-05-06T10:17:11;1.75;;;1.65;;
10565;SDS011;5331;48.148;16.326;2023-05-06T10:19:39;1.90;;;1.80;;
10565;SDS011;5331;48.148;16.326;2023-05-06T10:22:09;1.60;;;1.60;;
10565;SDS011;5331;48.148;16.326;2023-05-06T10:24:45;1.85;;;1.75;;
10565;SDS011;5331;48.148;16.326;2023-05-06T10:27:17;1.70;;;1.60;;
10565;SDS011;5331;48.148;16.326;2023-05-06T10:29:45;1.83;;;1.73;;
10565;SDS011;5331;48.148;16.326;2023-05-06T10:32:15;1.83;;;1.73;;
10565;SDS011;5331;48.148;16.326;2023-05-06T10:34:46;1.88;;;1.77;;
10565;SDS011;5331;48.148;16.326;2023-05-06T10:37:18;2.17;;;1.70;;
10565;SDS011;5331;48.148;16.326;2023-05-06T10:39:50;1.88;;;1.70;;
10565;SDS011;5331;48.148;16.326;2023-05-06T10:42:17;1.90;;;1.80;;
10565;SDS011;5331;48.148;16.326;2023-05-06T10:44:57;1.83;;;1.80;;
10565;SDS011;5331;48.148;16.326;2023-05-06T10:47:26;1.73;;;1.63;;
10565;SDS011;5331;48.148;16.326;2023-05-06T10:52:46;1.85;;;1.75;;
10565;SDS011;5331;48.148;16.326;2023-05-06T10:55:27;1.75;;;1.70;;
10565;SDS011;5331;48.148;16.326;2023-05-06T10:57:56;2.10;;;1.90;;
10565;SDS011;5331;48.148;16.326;2023-05-06T11:00:32;1.83;;;1.73;;
10565;SDS011;5331;48.148;16.326;2023-05-06T11:03:05;1.70;;;1.60;;
10565;SDS011;5331;48.148;16.326;2023-05-06T11:05:42;2.28;;;1.50;;
10565;SDS011;5331;48.148;16.326;2023-05-06T11:08:12;1.52;;;1.42;;
10565;SDS011;5331;48.148;16.326;2023-05-06T11:10:41;1.80;;;1.70;;
10565;SDS011;5331;48.148;16.326;2023-05-06T11:13:18;1.90;;;1.80;;
10565;SDS011;5331;48.148;16.326;2023-05-06T11:15:47;1.55;;;1.50;;
10565;SDS011;5331;48.148;16.326;2023-05-06T11:24:07;1.50;;;1.50;;
10565;SDS011;5331;48.148;16.326;2023-05-06T11:26:41;1.58;;;1.50;;
10565;SDS011;5331;48.148;16.326;2023-05-06T11:29:08;1.70;;;1.60;;
10565;SDS011;5331;48.148;16.326;2023-05-06T11:31:37;1.60;;;1.50;;
10565;SDS011;5331;48.148;16.326;2023-05-06T11:34:08;2.10;;;1.80;;
10565;SDS011;5331;48.148;16.326;2023-05-06T11:36:47;1.50;;;1.40;;
10565;SDS011;5331;48.148;16.326;2023-05-06T11:39:16;1.40;;;1.40;;
10565;SDS011;5331;48.148;16.326;2023-05-06T11:41:43;1.73;;;1.63;;
10565;SDS011;5331;48.148;16.326;2023-05-06T11:44:10;1.65;;;1.60;;
10565;SDS011;5331;48.148;16.326;2023-05-06T11:46:49;1.90;;;1.80;;
10565;SDS011;5331;48.148;16.326;2023-05-06T11:49:17;1.70;;;1.60;;
10565;SDS011;5331;48.148;16.326;2023-05-06T11:51:46;2.15;;;1.92;;
10565;SDS011;5331;48.148;16.326;2023-05-06T11:54:14;1.88;;;1.77;;
10565;SDS011;5331;48.148;16.326;2023-05-06T11:56:44;2.00;;;1.90;;
10565;SDS011;5331;48.148;16.326;2023-05-06T11:59:12;2.00;;;1.90;;
10565;SDS011;5331;48.148;16.326;2023-05-06T12:01:40;2.15;;;2.00;;
10565;SDS011;5331;48.148;16.326;2023-05-06T12:04:09;2.00;;;1.90;;
10565;SDS011;5331;48.148;16.326;2023-05-06T12:06:37;1.95;;;1.63;;
10565;SDS011;5331;48.148;16.326;2023-05-06T12:09:05;2.35;;;1.92;;
10565;SDS011;5331;48.148;16.326;2023-05-06T12:11:34;2.08;;;1.98;;
10565;SDS011;5331;48.148;16.326;2023-05-06T12:14:04;1.85;;;1.75;;
10565;SDS011;5331;48.148;16.326;2023-05-06T12:16:32;2.03;;;1.92;;
10565;SDS011;5331;48.148;16.326;2023-05-06T12:19:00;2.00;;;1.90;;
10565;SDS011;5331;48.148;16.326;2023-05-06T12:21:27;2.00;;;1.90;;
10565;SDS011;5331;48.148;16.326;2023-05-06T12:23:57;1.50;;;1.50;;
10565;SDS011;5331;48.148;16.326;2023-05-06T12:26:25;2.00;;;1.90;;
10565;SDS011;5331;48.148;16.326;2023-05-06T12:29:03;1.90;;;1.80;;
10565;SDS011;5331;48.148;16.326;2023-05-06T12:31:33;2.17;;;2.08;;
10565;SDS011;5331;48.148;16.326;2023-05-06T12:34:05;3.63;;;2.40;;
10565;SDS011;5331;48.148;16.326;2023-05-06T12:36:37;2.30;;;2.20;;
10565;SDS011;5331;48.148;16.326;2023-05-06T12:39:09;2.60;;;2.40;;
10565;SDS011;5331;48.148;16.326;2023-05-06T12:41:37;2.40;;;2.30;;
10565;SDS011;5331;48.148;16.326;2023-05-06T12:46:58;2.20;;;2.00;;
10565;SDS011;5331;48.148;16.326;2023-05-06T12:49:26;2.45;;;2.25;;
10565;SDS011;5331;48.148;16.326;2023-05-06T12:52:09;2.10;;;2.00;;
10565;SDS011;5331;48.148;16.326;2023-05-06T12:54:45;1.98;;;1.80;;
10565;SDS011;5331;48.148;16.326;2023-05-06T12:57:26;2.08;;;1.90;;
10565;SDS011;5331;48.148;16.326;2023-05-06T13:00:01;2.35;;;2.20;;
10565;SDS011;5331;48.148;16.326;2023-05-06T13:02:42;2.03;;;1.92;;
10565;SDS011;5331;48.148;16.326;2023-05-06T13:05:09;2.30;;;2.20;;
10565;SDS011;5331;48.148;16.326;2023-05-06T13:07:36;2.65;;;2.45;;
10565;SDS011;5331;48.148;16.326;2023-05-06T13:10:05;2.20;;;2.10;;
10565;SDS011;5331;48.148;16.326;2023-05-06T13:12:33;2.60;;;2.50;;
10565;SDS011;5331;48.148;16.326;2023-05-06T13:15:00;3.33;;;2.30;;
10565;SDS011;5331;48.148;16.326;2023-05-06T13:17:27;2.50;;;2.40;;
10565;SDS011;5331;48.148;16.326;2023-05-06T13:19:54;2.72;;;2.35;;
10565;SDS011;5331;48.148;16.326;2023-05-06T13:22:22;30.33;;;19.02;;
10565;SDS011;5331;48.148;16.326;2023-05-06T13:24:49;11.35;;;8.48;;
10565;SDS011;5331;48.148;16.326;2023-05-06T13:27:17;2.63;;;2.42;;
10565;SDS011;5331;48.148;16.326;2023-05-06T13:29:44;3.90;;;2.85;;
10565;SDS011;5331;48.148;16.326;2023-05-06T13:32:11;3.00;;;2.80;;
10565;SDS011;5331;48.148;16.326;2023-05-06T13:34:38;2.33;;;2.22;;
10565;SDS011;5331;48.148;16.326;2023-05-06T13:37:04;2.92;;;2.72;;
10565;SDS011;5331;48.148;16.326;2023-05-06T13:39:31;3.13;;;2.92;;
10565;SDS011;5331;48.148;16.326;2023-05-06T13:42:04;3.20;;;3.00;;
10565;SDS011;5331;48.148;16.326;2023-05-06T13:44:33;3.30;;;3.10;;
10565;SDS011;5331;48.148;16.326;2023-05-06T13:47:00;3.10;;;2.90;;
10565;SDS011;5331;48.148;16.326;2023-05-06T13:49:27;2.70;;;2.50;;
10565;SDS011;5331;48.148;16.326;2023-05-06T13:51:54;2.40;;;2.30;;
10565;SDS011;5331;48.148;16.326;2023-05-06T13:54:21;2.05;;;1.95;;
10565;SDS011;5331;48.148;16.326;2023-05-06T13:56:49;2.58;;;2.38;;
10565;SDS011;5331;48.148;16.326;2023-05-06T13:59:16;2.97;;;2.78;;
10565;SDS011;5331;48.148;16.326;2023-05-06T14:01:44;2.80;;;2.60;;
10565;SDS011;5331;48.148;16.326;2023-05-06T14:04:13;3.00;;;2.70;;
10565;SDS011;5331;48.148;16.326;2023-05-06T14:06:41;2.90;;;2.70;;
10565;SDS011;5331;48.148;16.326;2023-05-06T14:09:09;2.95;;;2.75;;
10565;SDS011;5331;48.148;16.326;2023-05-06T14:11:38;2.50;;;2.30;;
10565;SDS011;5331;48.148;16.326;2023-05-06T14:14:04;2.67;;;2.40;;
10565;SDS011;5331;48.148;16.326;2023-05-06T14:16:32;2.15;;;2.00;;
10565;SDS011;5331;48.148;16.326;2023-05-06T14:19:01;1.70;;;1.60;;
10565;SDS011;5331;48.148;16.326;2023-05-06T14:21:30;1.63;;;1.48;;
10565;SDS011;5331;48.148;16.326;2023-05-06T14:23:56;1.50;;;1.50;;
10565;SDS011;5331;48.148;16.326;2023-05-06T14:26:23;2.47;;;1.50;;
10565;SDS011;5331;48.148;16.326;2023-05-06T14:28:51;1.52;;;1.33;;
10565;SDS011;5331;48.148;16.326;2023-05-06T14:31:20;1.50;;;1.50;;
10565;SDS011;5331;48.148;16.326;2023-05-06T14:33:48;1.30;;;1.30;;
10565;SDS011;5331;48.148;16.326;2023-05-06T14:36:18;1.50;;;1.50;;
10565;SDS011;5331;48.148;16.326;2023-05-06T14:38:45;1.70;;;1.60;;
10565;SDS011;5331;48.148;16.326;2023-05-06T14:41:13;1.67;;;1.58;;
10565;SDS011;5331;48.148;16.326;2023-05-06T14:43:41;1.50;;;1.40;;
10565;SDS011;5331;48.148;16.326;2023-05-06T14:46:08;2.30;;;1.63;;
10565;SDS011;5331;48.148;16.326;2023-05-06T14:48:35;2.28;;;1.50;;
10565;SDS011;5331;48.148;16.326;2023-05-06T14:51:02;1.55;;;1.48;;
10565;SDS011;5331;48.148;16.326;2023-05-06T14:53:30;1.52;;;1.48;;
10565;SDS011;5331;48.148;16.326;2023-05-06T14:55:57;1.65;;;1.55;;
10565;SDS011;5331;48.148;16.326;2023-05-06T14:58:24;1.73;;;1.63;;
10565;SDS011;5331;48.148;16.326;2023-05-06T15:00:57;1.60;;;1.50;;
10565;SDS011;5331;48.148;16.326;2023-05-06T15:03:24;1.83;;;1.70;;
10565;SDS011;5331;48.148;16.326;2023-05-06T15:05:57;1.55;;;1.48;;